createdAt,value
2019-02-19T00:00:01.324Z,75.30
2019-02-19T00:02:30.022Z,75.40
2019-02-19T00:04:58.734Z,76.30
2019-02-19T00:07:27.477Z,75.50
2019-02-19T00:09:56.193Z,75.40
2019-02-19T00:12:24.910Z,75.30
2019-02-19T00:14:53.785Z,75.30
2019-02-19T00:17:22.569Z,75.10
2019-02-19T00:19:51.295Z,75.50
2019-02-19T00:22:20.173Z,75.40
2019-02-19T00:24:48.901Z,75.20
2019-02-19T00:27:17.709Z,75.40
2019-02-19T00:29:46.457Z,75.50
2019-02-19T00:32:15.309Z,75.40
2019-02-19T00:34:44.029Z,75.60
2019-02-19T00:37:12.764Z,75.80
2019-02-19T00:39:41.465Z,75.90
2019-02-19T00:42:10.201Z,75.90
2019-02-19T00:44:38.982Z,75.60
2019-02-19T00:47:07.673Z,75.70
2019-02-19T00:49:36.385Z,75.50
2019-02-19T00:52:05.197Z,75.50
2019-02-19T00:54:33.997Z,75.60
2019-02-19T00:57:02.762Z,75.30
2019-02-19T00:59:31.599Z,75.20
2019-02-19T01:02:00.365Z,75.40
2019-02-19T01:04:29.105Z,75.40
2019-02-19T01:06:57.880Z,75.10
2019-02-19T01:09:26.709Z,75.50
2019-02-19T01:11:55.413Z,75.50
2019-02-19T01:14:24.250Z,75.30
2019-02-19T01:16:52.949Z,75.40
2019-02-19T01:19:21.737Z,75.60
2019-02-19T01:21:50.493Z,75.60
2019-02-19T01:24:19.201Z,75.60
2019-02-19T01:26:47.917Z,76.50
2019-02-19T01:29:16.639Z,75.50
2019-02-19T01:31:45.341Z,75.40
2019-02-19T01:34:14.121Z,75.40
2019-02-19T01:36:42.876Z,75.40
2019-02-19T01:39:11.660Z,75.30
2019-02-19T01:41:40.363Z,75.20
2019-02-19T01:44:09.109Z,75.20
2019-02-19T01:46:37.822Z,75.30
2019-02-19T01:49:06.543Z,75.20
2019-02-19T01:51:35.445Z,75.30
2019-02-19T01:54:04.225Z,75.50
2019-02-19T01:56:32.961Z,74.70
2019-02-19T01:59:01.751Z,75.60
2019-02-19T02:01:30.493Z,75.70
2019-02-19T02:03:59.225Z,75.70
2019-02-19T02:06:27.949Z,75.90
2019-02-19T02:08:56.666Z,75.80
2019-02-19T02:11:25.398Z,75.90
2019-02-19T02:13:54.113Z,76.00
2019-02-19T02:16:22.810Z,75.90
2019-02-19T02:18:51.530Z,75.90
2019-02-19T02:21:20.249Z,75.90
2019-02-19T02:23:48.968Z,76.00
2019-02-19T02:26:17.693Z,76.10
2019-02-19T02:28:46.393Z,76.00
2019-02-19T02:31:15.127Z,76.00
2019-02-19T02:33:43.830Z,75.90
2019-02-19T02:36:12.549Z,76.10
2019-02-19T02:38:41.278Z,77.00
2019-02-19T02:41:09.997Z,77.10
2019-02-19T02:43:38.740Z,76.30
2019-02-19T02:46:07.594Z,76.40
2019-02-19T02:48:36.314Z,76.10
2019-02-19T02:51:05.155Z,76.30
2019-02-19T02:53:33.851Z,76.60
2019-02-19T02:56:02.550Z,76.70
2019-02-19T02:58:31.280Z,77.10
2019-02-19T03:00:59.994Z,76.80
2019-02-19T03:03:28.783Z,77.20
2019-02-19T03:06:19.734Z,77.50
2019-02-19T03:08:48.469Z,77.50
2019-02-19T03:11:17.181Z,77.40
2019-02-19T03:13:45.913Z,77.70
2019-02-19T03:16:14.713Z,77.60
2019-02-19T03:18:43.445Z,77.60
2019-02-19T03:21:12.207Z,77.80
2019-02-19T03:23:41.048Z,77.80
2019-02-19T03:26:09.760Z,78.40
2019-02-19T03:28:38.511Z,77.70
2019-02-19T03:31:07.235Z,77.70
2019-02-19T03:33:35.962Z,78.00
2019-02-19T03:36:04.681Z,78.00
2019-02-19T03:38:33.395Z,78.20
2019-02-19T03:41:02.749Z,78.30
2019-02-19T03:43:31.650Z,78.20
2019-02-19T03:46:00.361Z,78.30
2019-02-19T03:48:29.073Z,78.30
2019-02-19T03:50:57.838Z,78.20
2019-02-19T03:53:26.555Z,78.50
2019-02-19T03:55:55.323Z,78.50
2019-02-19T03:58:24.035Z,78.50
2019-02-19T04:00:52.825Z,78.60
2019-02-19T04:03:21.565Z,78.70
2019-02-19T04:05:50.596Z,79.20
2019-02-19T04:08:19.278Z,79.10
2019-02-19T04:10:47.994Z,79.10
2019-02-19T04:13:16.738Z,79.20
2019-02-19T04:15:45.485Z,79.20
2019-02-19T04:18:17.278Z,79.00
2019-02-19T04:20:46.027Z,79.00
2019-02-19T04:23:14.759Z,79.10
2019-02-19T04:25:43.615Z,79.20
2019-02-19T04:28:12.345Z,79.10
2019-02-19T04:30:41.054Z,79.10
2019-02-19T04:33:09.774Z,79.30
2019-02-19T04:35:38.489Z,80.30
2019-02-19T04:38:09.626Z,80.40
2019-02-19T04:40:41.082Z,80.40
2019-02-19T04:43:09.792Z,80.30
2019-02-19T04:45:38.501Z,80.30
2019-02-19T04:48:07.202Z,80.40
2019-02-19T04:50:36.005Z,80.50
2019-02-19T04:53:04.798Z,80.40
2019-02-19T04:55:33.508Z,80.40
2019-02-19T04:58:02.252Z,80.50
2019-02-19T05:00:30.954Z,80.20
2019-02-19T05:02:59.650Z,80.30
2019-02-19T05:05:28.449Z,80.30
2019-02-19T05:07:57.159Z,80.10
2019-02-19T05:10:25.858Z,80.00
2019-02-19T05:12:54.594Z,80.20
2019-02-19T05:15:23.336Z,79.90
2019-02-19T05:17:52.054Z,80.10
2019-02-19T05:20:20.789Z,80.00
2019-02-19T05:22:49.514Z,80.10
2019-02-19T05:25:18.221Z,80.20
2019-02-19T05:27:46.944Z,80.10
2019-02-19T05:30:15.747Z,79.90
2019-02-19T05:32:44.480Z,79.90
2019-02-19T05:35:13.373Z,80.10
2019-02-19T05:37:42.061Z,80.00
2019-02-19T05:40:10.917Z,80.20
2019-02-19T05:42:39.698Z,80.00
2019-02-19T05:45:08.632Z,80.20
2019-02-19T05:47:37.357Z,79.90
2019-02-19T05:50:06.934Z,80.00
2019-02-19T05:52:35.714Z,80.10
2019-02-19T05:55:04.699Z,79.90
2019-02-19T05:57:33.409Z,80.10
2019-02-19T06:00:02.242Z,80.20
2019-02-19T06:02:30.949Z,80.10
2019-02-19T06:04:59.729Z,80.30
2019-02-19T06:07:28.449Z,80.50
2019-02-19T06:09:57.189Z,80.50
2019-02-19T06:12:25.904Z,80.10
2019-02-19T06:14:54.622Z,80.30
2019-02-19T06:17:23.388Z,80.50
2019-02-19T06:19:52.117Z,80.20
2019-02-19T06:22:20.958Z,80.50
2019-02-19T06:24:49.675Z,80.60
2019-02-19T06:27:18.397Z,80.80
2019-02-19T06:29:47.101Z,81.00
2019-02-19T06:32:15.818Z,80.80
2019-02-19T06:34:44.625Z,81.00
2019-02-19T06:37:14.509Z,80.90
2019-02-19T06:39:43.207Z,80.90
2019-02-19T06:42:12.109Z,80.90
2019-02-19T06:44:40.805Z,80.90
2019-02-19T06:47:09.565Z,80.80
2019-02-19T06:49:38.389Z,80.90
2019-02-19T06:52:07.094Z,81.00
2019-02-19T06:54:35.812Z,81.10
2019-02-19T06:57:04.541Z,80.90
2019-02-19T06:59:33.257Z,81.30
2019-02-19T07:02:14.404Z,81.30
2019-02-19T07:04:48.293Z,81.30
2019-02-19T07:07:17.022Z,81.10
2019-02-19T07:09:45.773Z,81.30
2019-02-19T07:12:14.658Z,81.50
2019-02-19T07:14:43.373Z,80.00
2019-02-19T07:17:15.641Z,81.30
2019-02-19T07:19:44.003Z,81.30
2019-02-19T07:22:15.141Z,81.60
2019-02-19T07:24:43.971Z,81.50
2019-02-19T07:27:12.717Z,81.70
2019-02-19T07:29:41.647Z,81.60
2019-02-19T07:32:10.398Z,82.20
2019-02-19T07:34:40.940Z,82.00
2019-02-19T07:37:09.541Z,82.10
2019-02-19T07:39:38.366Z,82.60
2019-02-19T07:42:07.106Z,82.50
2019-02-19T07:44:35.932Z,82.40
2019-02-19T07:47:04.661Z,82.20
2019-02-19T07:49:33.371Z,82.80
2019-02-19T07:52:02.082Z,83.00
2019-02-19T07:54:30.826Z,83.00
2019-02-19T07:56:59.561Z,83.30
2019-02-19T07:59:28.262Z,83.30
2019-02-19T08:01:56.985Z,83.30
2019-02-19T08:04:25.709Z,83.50
2019-02-19T08:06:55.029Z,83.80
2019-02-19T08:09:23.928Z,84.00
2019-02-19T08:11:52.649Z,84.00
2019-02-19T08:14:21.345Z,84.30
2019-02-19T08:16:50.090Z,84.50
2019-02-19T08:19:18.905Z,84.90
2019-02-19T08:21:47.613Z,84.70
2019-02-19T08:24:16.461Z,84.70
2019-02-19T08:26:45.165Z,85.10
2019-02-19T08:29:14.156Z,85.40
2019-02-19T08:31:42.990Z,85.00
2019-02-19T08:34:11.845Z,85.20
2019-02-19T08:36:40.557Z,85.00
2019-02-19T08:39:09.353Z,85.00
2019-02-19T08:41:38.101Z,85.00
2019-02-19T08:44:08.433Z,84.80
2019-02-19T08:46:37.403Z,85.20
2019-02-19T08:49:06.119Z,85.20
2019-02-19T08:51:35.022Z,85.10
2019-02-19T08:54:03.817Z,84.90
2019-02-19T08:56:32.541Z,85.10
2019-02-19T08:59:01.237Z,84.90
2019-02-19T09:01:30.061Z,84.70
2019-02-19T09:03:58.774Z,85.00
2019-02-19T09:06:27.742Z,85.00
2019-02-19T09:08:56.562Z,85.20
2019-02-19T09:11:25.338Z,85.20
2019-02-19T09:13:54.058Z,85.30
2019-02-19T09:16:22.861Z,84.20
2019-02-19T09:18:51.685Z,84.40
2019-02-19T09:21:20.494Z,84.30
2019-02-19T09:23:49.361Z,84.20
2019-02-19T09:26:18.190Z,83.70
2019-02-19T09:28:48.674Z,83.60
2019-02-19T09:31:17.405Z,83.40
2019-02-19T09:33:46.105Z,83.20
2019-02-19T09:36:14.844Z,83.30
2019-02-19T09:38:43.578Z,83.20
2019-02-19T09:41:12.421Z,82.90
2019-02-19T09:43:41.125Z,82.70
2019-02-19T09:46:09.840Z,82.70
2019-02-19T09:48:38.571Z,82.90
2019-02-19T09:51:07.274Z,82.90
2019-02-19T09:53:36.001Z,83.20
2019-02-19T09:56:04.833Z,83.40
2019-02-19T09:58:33.570Z,83.10
2019-02-19T10:01:02.430Z,82.50
2019-02-19T10:03:31.146Z,82.10
2019-02-19T10:05:59.846Z,81.70
2019-02-19T10:08:28.689Z,81.40
2019-02-19T10:10:57.399Z,81.30
2019-02-19T10:13:26.116Z,81.20
2019-02-19T10:15:54.889Z,80.90
2019-02-19T10:18:23.645Z,80.90
2019-02-19T10:20:52.534Z,80.80
2019-02-19T10:23:21.326Z,80.80
2019-02-19T10:25:50.217Z,81.00
2019-02-19T10:28:19.046Z,80.70
2019-02-19T10:30:47.770Z,80.70
2019-02-19T10:33:16.478Z,80.70
2019-02-19T10:35:45.369Z,80.70
2019-02-19T10:38:14.234Z,80.50
2019-02-19T10:40:43.049Z,80.50
2019-02-19T10:43:11.895Z,79.90
2019-02-19T10:45:40.650Z,80.70
2019-02-19T10:48:09.455Z,79.70
2019-02-19T10:50:38.155Z,80.00
2019-02-19T10:53:06.903Z,79.90
2019-02-19T10:55:35.662Z,80.10
2019-02-19T10:58:04.473Z,79.80
2019-02-19T11:00:33.491Z,79.60
2019-02-19T11:03:02.197Z,79.00
2019-02-19T11:05:30.921Z,78.50
2019-02-19T11:07:59.645Z,78.20
2019-02-19T11:10:28.455Z,78.10
2019-02-19T11:12:57.193Z,77.90
2019-02-19T11:15:26.001Z,78.20
2019-02-19T11:17:54.753Z,77.90
2019-02-19T11:20:23.500Z,78.10
2019-02-19T11:22:52.309Z,78.10
2019-02-19T11:25:21.025Z,77.80
2019-02-19T11:27:49.758Z,77.50
2019-02-19T11:30:20.329Z,77.60
2019-02-19T11:32:48.951Z,77.40
2019-02-19T11:35:17.777Z,77.00
2019-02-19T11:37:46.527Z,76.50
2019-02-19T11:40:15.331Z,76.00
2019-02-19T11:42:44.220Z,75.60
2019-02-19T11:45:16.721Z,75.60
2019-02-19T11:47:45.557Z,75.20
2019-02-19T11:50:14.327Z,75.10
2019-02-19T11:52:43.085Z,75.60
2019-02-19T11:55:12.697Z,75.20
2019-02-19T11:57:41.429Z,74.80
2019-02-19T12:00:13.637Z,74.50
2019-02-19T12:02:42.374Z,74.60
2019-02-19T12:05:11.174Z,74.40
2019-02-19T12:07:39.897Z,74.30
2019-02-19T12:10:08.760Z,74.10
2019-02-19T12:12:37.505Z,74.40
2019-02-19T12:15:06.725Z,74.20
2019-02-19T12:17:35.523Z,74.40
2019-02-19T12:20:04.493Z,74.70
2019-02-19T12:22:33.222Z,74.60
2019-02-19T12:25:02.049Z,74.70
2019-02-19T12:27:30.757Z,74.60
2019-02-19T12:29:59.530Z,73.80
2019-02-19T12:32:28.232Z,73.60
2019-02-19T12:34:56.929Z,73.30
2019-02-19T12:37:25.676Z,72.90
2019-02-19T12:39:54.405Z,72.70
2019-02-19T12:42:23.223Z,72.80
2019-02-19T12:44:52.060Z,72.10
2019-02-19T12:47:20.762Z,71.80
2019-02-19T12:49:49.486Z,71.40
2019-02-19T12:52:18.226Z,71.40
2019-02-19T12:54:46.925Z,71.50
2019-02-19T12:57:15.637Z,71.10
2019-02-19T12:59:44.360Z,71.10
2019-02-19T13:02:13.162Z,71.30
2019-02-19T13:04:41.864Z,71.40
2019-02-19T13:07:10.609Z,71.20
2019-02-19T13:09:39.341Z,70.90
2019-02-19T13:12:08.075Z,71.00
2019-02-19T13:14:36.817Z,70.90
2019-02-19T13:17:05.538Z,70.40
2019-02-19T13:19:34.279Z,70.50
2019-02-19T13:22:03.098Z,70.60
2019-02-19T13:24:31.814Z,70.70
2019-02-19T13:27:00.558Z,70.50
2019-02-19T13:29:29.693Z,70.70
2019-02-19T13:31:58.417Z,69.80
2019-02-19T13:34:27.141Z,69.60
2019-02-19T13:36:55.882Z,69.40
2019-02-19T13:39:24.591Z,69.50
2019-02-19T13:41:53.301Z,69.10
2019-02-19T13:44:22.017Z,69.00
2019-02-19T13:46:50.727Z,68.50
2019-02-19T13:49:19.443Z,68.60
2019-02-19T13:51:48.210Z,68.80
2019-02-19T13:54:24.467Z,68.80
2019-02-19T13:56:53.191Z,68.80
2019-02-19T13:59:21.891Z,68.80
2019-02-19T14:01:50.614Z,68.60
2019-02-19T14:04:19.349Z,68.20
2019-02-19T14:06:48.068Z,68.50
2019-02-19T14:09:16.769Z,67.50
2019-02-19T14:11:45.511Z,67.60
2019-02-19T14:14:48.774Z,67.40
2019-02-19T14:17:19.985Z,67.60
2019-02-19T14:20:02.483Z,67.60
2019-02-19T14:22:53.225Z,67.40
2019-02-19T14:25:39.990Z,67.50
2019-02-19T14:28:40.165Z,67.00
2019-02-19T14:31:21.305Z,67.20
2019-02-19T14:34:27.635Z,66.50
2019-02-19T14:37:05.489Z,66.40
2019-02-19T14:39:43.561Z,65.90
2019-02-19T14:42:37.233Z,66.10
2019-02-19T14:45:25.470Z,66.00
2019-02-19T14:48:12.243Z,66.20
2019-02-19T14:50:59.042Z,66.70
2019-02-19T14:53:36.483Z,66.60
2019-02-19T14:56:20.461Z,66.80
2019-02-19T14:59:07.284Z,66.40
2019-02-19T15:01:49.561Z,66.30
2019-02-19T15:04:36.250Z,65.90
2019-02-19T15:07:23.077Z,65.30
2019-02-19T15:10:12.441Z,64.70
2019-02-19T15:12:59.811Z,63.70
2019-02-19T15:15:46.527Z,63.50
2019-02-19T15:18:33.429Z,62.80
2019-02-19T15:21:23.040Z,62.10
2019-02-19T15:24:14.298Z,60.80
2019-02-19T15:26:54.583Z,59.00
2019-02-19T15:29:58.001Z,58.10
2019-02-19T15:32:44.476Z,57.80
2019-02-19T15:35:40.246Z,57.80
2019-02-19T15:38:29.674Z,57.80
2019-02-19T15:41:16.746Z,57.90
2019-02-19T15:43:53.121Z,57.80
2019-02-19T15:46:38.622Z,57.80
2019-02-19T15:49:47.577Z,57.80
2019-02-19T15:52:31.126Z,57.60
2019-02-19T15:55:31.089Z,58.60
2019-02-19T15:58:17.689Z,58.00
2019-02-19T16:01:05.565Z,57.90
2019-02-19T16:04:00.058Z,57.90
2019-02-19T16:06:47.853Z,58.20
2019-02-19T16:09:35.657Z,58.10
2019-02-19T16:12:09.994Z,58.50
2019-02-19T16:15:10.018Z,58.30
2019-02-19T16:17:56.594Z,58.40
2019-02-19T16:20:53.901Z,58.50
2019-02-19T16:23:53.844Z,58.70
2019-02-19T16:26:33.469Z,58.50
2019-02-19T16:29:21.468Z,59.10
2019-02-19T16:32:06.210Z,59.30
2019-02-19T16:35:08.926Z,59.30
2019-02-19T16:38:03.184Z,59.40
2019-02-19T16:40:45.825Z,59.60
2019-02-19T16:43:43.944Z,59.80
2019-02-19T16:46:35.109Z,59.70
2019-02-19T16:49:36.429Z,61.00
2019-02-19T16:52:29.794Z,60.50
2019-02-19T16:55:14.170Z,60.30
2019-02-19T16:57:50.983Z,60.70
2019-02-19T17:00:27.417Z,61.00
2019-02-19T17:03:06.261Z,61.10
2019-02-19T17:05:54.082Z,61.30
2019-02-19T17:08:41.173Z,61.40
2019-02-19T17:11:44.394Z,61.60
2019-02-19T17:14:33.543Z,61.90
2019-02-19T17:17:24.346Z,62.30
2019-02-19T17:20:28.792Z,62.70
2019-02-19T17:23:02.741Z,63.40
2019-02-19T17:25:38.215Z,64.20
2019-02-19T17:28:30.930Z,64.50
2019-02-19T17:31:13.797Z,64.70
2019-02-19T17:34:00.503Z,65.30
2019-02-19T17:36:44.685Z,65.70
2019-02-19T17:39:32.586Z,66.10
2019-02-19T17:42:06.744Z,66.30
2019-02-19T17:44:44.291Z,66.70
2019-02-19T17:47:35.544Z,67.10
2019-02-19T17:50:27.107Z,67.30
2019-02-19T17:53:17.849Z,67.50
2019-02-19T17:56:08.933Z,67.60
2019-02-19T17:58:48.018Z,67.80
2019-02-19T18:01:35.849Z,67.90
2019-02-19T18:04:21.854Z,68.20
2019-02-19T18:07:18.547Z,68.50
2019-02-19T18:09:55.778Z,68.70
2019-02-19T18:12:45.161Z,68.80
2019-02-19T18:15:33.045Z,68.60
2019-02-19T18:18:10.827Z,69.00
2019-02-19T18:20:47.333Z,69.00
2019-02-19T18:23:10.023Z,69.20
2019-02-19T18:25:38.858Z,69.20
2019-02-19T18:28:07.622Z,69.50
2019-02-19T18:30:36.372Z,69.30
2019-02-19T18:33:05.354Z,69.60
2019-02-19T18:35:34.090Z,69.60
2019-02-19T18:38:02.889Z,69.60
2019-02-19T18:40:31.822Z,70.10
2019-02-19T18:43:00.761Z,70.10
2019-02-19T18:45:31.207Z,70.10
2019-02-19T18:48:00.213Z,70.10
2019-02-19T18:50:58.609Z,70.30
2019-02-19T18:53:26.708Z,70.60
2019-02-19T18:56:01.775Z,70.10
2019-02-19T18:58:33.239Z,69.30
2019-02-19T19:01:08.579Z,70.10
2019-02-19T19:03:39.748Z,70.20
2019-02-19T19:06:09.334Z,68.30
2019-02-19T19:08:39.863Z,69.70
2019-02-19T19:11:09.985Z,70.30
2019-02-19T19:13:38.729Z,69.10
2019-02-19T19:16:13.591Z,70.30
2019-02-19T19:18:42.537Z,70.40
2019-02-19T19:21:11.862Z,70.30
2019-02-19T19:23:45.808Z,70.70
2019-02-19T19:26:50.263Z,70.70
2019-02-19T19:29:22.626Z,70.90
2019-02-19T19:31:51.608Z,68.40
2019-02-19T19:34:20.673Z,68.90
2019-02-19T19:36:55.584Z,71.70
2019-02-19T19:39:29.383Z,71.30
2019-02-19T19:42:02.145Z,71.50
2019-02-19T19:44:32.731Z,71.10
2019-02-19T19:47:02.402Z,70.70
2019-02-19T19:49:39.204Z,70.30
2019-02-19T19:52:07.670Z,71.00
2019-02-19T19:54:46.801Z,71.70
2019-02-19T19:57:15.702Z,72.30
2019-02-19T19:59:49.541Z,72.00
2019-02-19T20:02:24.097Z,72.70
2019-02-19T20:04:53.989Z,72.70
2019-02-19T20:07:22.791Z,72.70
2019-02-19T20:09:53.303Z,73.30
2019-02-19T20:12:22.057Z,73.00
2019-02-19T20:14:50.798Z,73.30
2019-02-19T20:17:22.455Z,73.90
2019-02-19T20:19:51.409Z,74.10
2019-02-19T20:22:26.878Z,73.10
2019-02-19T20:24:58.170Z,73.90
2019-02-19T20:27:27.322Z,73.70
2019-02-19T20:29:59.458Z,74.50
2019-02-19T20:32:33.255Z,74.60
2019-02-19T20:35:05.620Z,74.10
2019-02-19T20:37:34.454Z,73.50
2019-02-19T20:40:03.325Z,74.40
2019-02-19T20:42:32.233Z,75.60
2019-02-19T20:45:01.264Z,75.00
2019-02-19T20:47:29.972Z,74.50
2019-02-19T20:50:03.376Z,74.90
2019-02-19T20:52:35.815Z,73.60
2019-02-19T20:55:05.281Z,74.40
2019-02-19T20:57:33.982Z,74.50
2019-02-19T21:00:03.091Z,75.00
2019-02-19T21:02:31.805Z,76.10
2019-02-19T21:05:00.532Z,76.30
2019-02-19T21:07:29.406Z,76.70
2019-02-19T21:09:58.145Z,76.60
2019-02-19T21:12:27.065Z,76.70
2019-02-19T21:14:55.802Z,76.70
2019-02-19T21:17:24.518Z,76.90
2019-02-19T21:19:53.466Z,77.40
2019-02-19T21:22:22.458Z,77.10
2019-02-19T21:24:51.374Z,77.00
2019-02-19T21:27:20.135Z,77.30
2019-02-19T21:29:48.933Z,77.40
2019-02-19T21:32:17.726Z,77.60
2019-02-19T21:34:46.497Z,77.40
2019-02-19T21:37:15.398Z,77.50
2019-02-19T21:39:44.115Z,76.90
2019-02-19T21:42:13.093Z,77.50
2019-02-19T21:44:42.083Z,76.90
2019-02-19T21:47:10.813Z,77.50
2019-02-19T21:49:39.640Z,77.50
2019-02-19T21:52:08.349Z,77.50
2019-02-19T21:54:40.221Z,77.50
2019-02-19T21:57:09.007Z,77.50
2019-02-19T21:59:37.810Z,77.30
2019-02-19T22:02:06.597Z,77.40
2019-02-19T22:04:35.501Z,77.50
2019-02-19T22:07:04.301Z,77.40
2019-02-19T22:09:33.201Z,77.30
2019-02-19T22:12:01.954Z,77.40
2019-02-19T22:14:30.645Z,77.40
2019-02-19T22:16:59.677Z,77.50
2019-02-19T22:19:28.405Z,77.70
2019-02-19T22:22:16.226Z,77.60
2019-02-19T22:24:44.929Z,77.80
2019-02-19T22:27:13.699Z,77.70
2019-02-19T22:29:42.434Z,77.50
2019-02-19T22:32:12.414Z,77.70
2019-02-19T22:34:43.096Z,77.60
2019-02-19T22:37:11.649Z,77.60
2019-02-19T22:39:40.343Z,77.80
2019-02-19T22:42:09.142Z,78.00
2019-02-19T22:44:38.945Z,78.00
2019-02-19T22:47:09.561Z,77.90
2019-02-19T22:49:38.436Z,77.70
2019-02-19T22:52:12.537Z,78.00
2019-02-19T22:54:47.065Z,77.60
2019-02-19T22:57:15.782Z,78.00
2019-02-19T22:59:44.595Z,78.10
2019-02-19T23:02:16.505Z,77.60
2019-02-19T23:04:45.306Z,77.80
2019-02-19T23:07:14.025Z,78.00
2019-02-19T23:09:42.716Z,78.00
2019-02-19T23:12:11.447Z,77.80
2019-02-19T23:14:40.141Z,77.90
2019-02-19T23:17:08.871Z,78.00
2019-02-19T23:19:37.581Z,78.10
2019-02-19T23:22:06.289Z,78.00
2019-02-19T23:24:35.081Z,78.00
2019-02-19T23:27:04.228Z,77.90
2019-02-19T23:29:32.981Z,77.90
2019-02-19T23:32:01.709Z,77.80
2019-02-19T23:34:30.449Z,77.80
2019-02-19T23:37:17.230Z,78.00
2019-02-19T23:39:46.059Z,77.90
2019-02-19T23:42:14.817Z,77.90
2019-02-19T23:44:43.529Z,78.10
2019-02-19T23:47:13.441Z,78.00
2019-02-19T23:49:42.142Z,78.00
2019-02-19T23:52:10.847Z,77.90
2019-02-19T23:54:39.659Z,78.00
2019-02-19T23:57:08.357Z,78.10
2019-02-19T23:59:37.645Z,78.10
